Time;durP1;ratioP1;P1;durP2;ratioP2;P2;SDS_P1;SDS_P2;PMS_P1;PMS_P2;Temp;Humidity;BMP_temperature;BMP_pressure;BME280_temperature;BME280_humidity;BME280_pressure;Samples;Min_cycle;Max_cycle;Signal;HPM_P1;HPM_P2
2023/12/13 00:01:27;;;;;;;58.60;32.45;;;;;;;29.75;66.91;101010.06;4960960;28;70625;-38
2023/12/13 00:03:57;;;;;;;46.67;32.03;;;;;;;29.79;66.67;101014.03;4943646;28;65632;-37
2023/12/13 00:06:29;;;;;;;56.03;34.33;;;;;;;29.36;66.52;100946.88;4960680;28;70010;-38
2023/12/13 00:08:59;;;;;;;57.63;35.28;;;;;;;29.75;67.14;101008.19;4957158;28;65714;-38
2023/12/13 00:11:28;;;;;;;64.55;37.33;;;;;;;29.79;67.37;101012.16;4970160;28;70197;-37
2023/12/13 00:13:58;;;;;;;71.15;38.63;;;;;;;29.82;67.84;101014.44;4979184;28;66270;-38
2023/12/13 00:16:28;;;;;;;56.53;34.63;;;;;;;30.00;67.94;101048.94;4968445;28;70115;-39
2023/12/13 00:18:58;;;;;;;56.88;36.10;;;;;;;30.04;68.33;101049.38;4968199;28;66028;-38
2023/12/13 00:21:28;;;;;;;58.35;34.03;;;;;;;29.66;68.85;100982.44;4965533;28;69584;-38
2023/12/13 00:23:58;;;;;;;50.72;32.50;;;;;;;30.01;68.76;101038.97;4979292;28;66820;-37
2023/12/13 00:26:29;;;;;;;52.38;32.47;;;;;;;30.07;68.41;101043.53;4965221;28;70056;-38
2023/12/13 00:29:00;;;;;;;52.25;32.17;;;;;;;30.13;68.80;101053.50;4979182;28;65346;-38
2023/12/13 00:31:30;;;;;;;60.13;32.63;;;;;;;30.18;68.00;101072.66;4967904;28;69844;-38
2023/12/13 00:33:59;;;;;;;44.42;30.83;;;;;;;30.19;68.28;101074.31;4975633;28;65490;-38
2023/12/13 00:36:30;;;;;;;56.15;29.25;;;;;;;29.81;67.95;101023.59;4970630;28;70320;-39
2023/12/13 00:39:00;;;;;;;51.17;30.20;;;;;;;30.21;67.93;101085.75;4973288;28;66101;-39
2023/12/13 00:41:30;;;;;;;43.70;28.70;;;;;;;30.22;67.67;101100.97;4974640;28;70291;-39
2023/12/13 00:44:00;;;;;;;43.70;27.85;;;;;;;30.20;67.37;101086.81;4957475;28;65307;-38
2023/12/13 00:46:30;;;;;;;40.67;27.38;;;;;;;30.28;67.73;101100.16;4951457;28;70590;-37
2023/12/13 00:49:00;;;;;;;45.97;27.50;;;;;;;30.29;68.07;101109.09;4949601;28;65025;-37
2023/12/13 00:51:31;;;;;;;38.83;26.48;;;;;;;30.30;67.45;101112.63;4982300;28;70492;-37
2023/12/13 00:54:00;;;;;;;43.03;27.17;;;;;;;30.28;67.77;101116.38;4948999;28;66276;-38
2023/12/13 00:56:31;;;;;;;43.08;26.42;;;;;;;30.25;67.77;101115.94;4970537;28;69862;-38
2023/12/13 00:59:01;;;;;;;40.47;25.23;;;;;;;30.30;67.86;101118.03;4977321;28;65655;-38
2023/12/13 01:01:31;;;;;;;38.15;23.80;;;;;;;30.48;62.73;101126.34;4952702;28;69225;-38
2023/12/13 01:04:02;;;;;;;31.00;22.95;;;;;;;30.55;62.30;101132.56;4960261;28;65986;-38
2023/12/13 01:06:32;;;;;;;31.98;22.50;;;;;;;30.58;61.73;101136.72;4975671;28;70577;-38
2023/12/13 01:09:03;;;;;;;27.38;21.88;;;;;;;30.58;61.29;101129.41;4960292;28;65385;-38
2023/12/13 01:11:33;;;;;;;32.03;23.10;;;;;;;30.64;61.32;101133.97;4960998;28;70829;-38
2023/12/13 01:14:06;;;;;;;23.58;20.83;;;;;;;30.72;61.33;101141.03;4973289;28;66415;-37
2023/12/13 01:16:37;;;;;;;31.65;21.08;;;;;;;30.64;60.87;101125.84;4948152;28;69458;-38
2023/12/13 01:19:07;;;;;;;28.67;21.48;;;;;;;30.75;60.54;101142.50;4964003;28;66432;-37
2023/12/13 01:21:38;;;;;;;23.08;20.45;;;;;;;30.79;60.39;101147.28;4947665;28;70275;-37
2023/12/13 01:24:08;;;;;;;23.08;20.58;;;;;;;30.77;60.60;101148.53;4964952;28;66035;-37
2023/12/13 01:26:38;;;;;;;28.48;20.67;;;;;;;30.86;60.53;101166.25;4962789;28;70624;-38
2023/12/13 01:29:08;;;;;;;30.58;21.10;;;;;;;30.86;60.55;101167.06;4977212;28;66411;-38
2023/12/13 01:31:38;;;;;;;25.58;20.25;;;;;;;30.90;60.41;101164.78;4977061;28;69567;-37
2023/12/13 01:34:08;;;;;;;21.67;19.48;;;;;;;30.91;60.45;101174.56;4967372;28;65772;-38
2023/12/13 01:36:42;;;;;;;21.45;19.17;;;;;;;30.92;60.20;101166.25;4964598;28;71794;-38
2023/12/13 01:39:15;;;;;;;21.65;19.33;;;;;;;30.97;60.48;101172.88;4963738;28;66212;-38
2023/12/13 01:41:45;;;;;;;22.02;19.67;;;;;;;30.97;60.30;101171.00;4977679;28;70900;-38
2023/12/13 01:44:15;;;;;;;24.65;18.75;;;;;;;30.98;60.15;101164.53;4962027;28;65678;-37
2023/12/13 01:46:46;;;;;;;22.85;19.10;;;;;;;31.00;60.06;101178.69;4969383;28;70133;-37
2023/12/13 01:49:17;;;;;;;21.50;19.25;;;;;;;31.01;59.83;101169.53;4967828;28;65875;-37
2023/12/13 01:51:48;;;;;;;20.95;18.88;;;;;;;30.98;59.97;101164.53;4965603;28;70263;-38
2023/12/13 01:54:19;;;;;;;24.80;19.20;;;;;;;31.05;59.79;101165.34;4947204;28;66003;-38
2023/12/13 01:56:51;;;;;;;25.42;19.08;;;;;;;31.03;59.82;101167.41;4946165;28;70186;-38
2023/12/13 01:59:23;;;;;;;23.10;19.80;;;;;;;31.06;59.80;101172.41;4970650;28;65877;-37
2023/12/13 02:01:54;;;;;;;20.50;18.45;;;;;;;31.06;59.98;101169.69;4961768;28;69992;-39
2023/12/13 02:04:27;;;;;;;21.02;18.92;;;;;;;31.08;59.74;101175.75;4982382;28;66262;-38
2023/12/13 02:06:57;;;;;;;22.98;19.15;;;;;;;31.10;60.04;101173.66;4973481;28;70995;-37
2023/12/13 02:09:27;;;;;;;23.00;18.55;;;;;;;31.07;59.67;101168.66;4965444;28;66227;-38
2023/12/13 02:11:58;;;;;;;20.95;18.67;;;;;;;31.13;59.89;101178.66;4950429;28;69820;-38
2023/12/13 02:14:28;;;;;;;20.50;18.35;;;;;;;31.02;60.03;101160.34;4967925;28;65119;-37
2023/12/13 02:16:58;;;;;;;20.85;18.75;;;;;;;31.07;59.96;101163.25;4966490;28;70030;-37
2023/12/13 02:19:28;;;;;;;23.45;19.98;;;;;;;31.04;59.71;101152.84;4968630;28;66144;-37
2023/12/13 02:21:58;;;;;;;21.80;19.35;;;;;;;31.19;59.52;101174.25;4969779;28;69326;-37
2023/12/13 02:24:30;;;;;;;20.52;18.33;;;;;;;31.15;59.61;101170.31;4964666;28;65861;-38
2023/12/13 02:27:00;;;;;;;20.33;18.25;;;;;;;31.21;59.64;101174.03;4968008;28;69169;-38
2023/12/13 02:29:31;;;;;;;21.75;19.05;;;;;;;31.16;59.29;101153.81;4949379;28;65639;-38
2023/12/13 02:32:01;;;;;;;21.23;18.38;;;;;;;31.25;59.22;101164.41;4931887;28;70643;-37
2023/12/13 02:34:31;;;;;;;20.73;17.95;;;;;;;31.02;59.54;101127.00;4967944;28;66038;-37
2023/12/13 02:37:02;;;;;;;21.10;18.88;;;;;;;31.27;59.26;101162.31;4966229;28;69112;-38
2023/12/13 02:39:32;;;;;;;19.55;17.75;;;;;;;31.24;59.55;101151.91;4972186;28;65328;-38
2023/12/13 02:42:02;;;;;;;19.90;17.90;;;;;;;31.26;59.49;101152.50;4963757;28;70093;-37
2023/12/13 02:44:32;;;;;;;19.48;17.55;;;;;;;31.32;59.19;101160.63;4969670;28;65942;-37
2023/12/13 02:47:02;;;;;;;19.48;17.38;;;;;;;30.93;59.28;101088.50;4976982;28;69985;-37
2023/12/13 02:49:33;;;;;;;19.55;17.73;;;;;;;31.26;59.47;101133.53;4977758;28;65725;-37
2023/12/13 02:52:04;;;;;;;20.27;17.38;;;;;;;31.25;58.94;101127.28;4967662;28;69180;-38
2023/12/13 02:54:34;;;;;;;21.90;17.67;;;;;;;31.30;59.32;101129.38;4968073;28;66612;-38
2023/12/13 02:57:04;;;;;;;19.23;17.40;;;;;;;31.40;59.43;101137.91;4967620;28;69362;-39
2023/12/13 02:59:34;;;;;;;21.17;17.70;;;;;;;31.41;59.31;101136.84;4946950;28;66877;-38
2023/12/13 03:02:04;;;;;;;19.20;17.50;;;;;;;31.43;59.31;101137.47;4950440;28;70389;-39
2023/12/13 03:04:34;;;;;;;18.27;16.48;;;;;;;31.45;59.26;101132.63;4964193;28;64803;-38
2023/12/13 03:07:05;;;;;;;17.92;16.23;;;;;;;31.47;59.05;101135.13;4950835;28;70407;-38
2023/12/13 03:09:37;;;;;;;18.25;16.38;;;;;;;31.45;59.21;101131.81;4973000;28;65316;-37
2023/12/13 03:12:08;;;;;;;19.83;17.02;;;;;;;31.41;59.00;101109.72;4984186;28;69291;-38
2023/12/13 03:14:38;;;;;;;18.23;16.27;;;;;;;31.31;59.20;101096.59;4982225;28;65180;-38
2023/12/13 03:17:08;;;;;;;18.35;16.42;;;;;;;31.52;58.70;101117.16;4988314;28;70296;-37
2023/12/13 03:19:38;;;;;;;18.23;16.55;;;;;;;31.54;58.79;101115.06;4992573;28;65140;-37
2023/12/13 03:22:08;;;;;;;18.25;15.77;;;;;;;31.52;58.75;101103.59;4998352;28;70129;-37
2023/12/13 03:24:39;;;;;;;18.35;16.58;;;;;;;31.47;58.89;101092.59;4982944;28;66296;-37
2023/12/13 03:27:09;;;;;;;17.73;15.80;;;;;;;31.54;58.60;101087.13;4990509;28;70612;-38
2023/12/13 03:29:39;;;;;;;17.80;15.95;;;;;;;31.63;59.04;101095.81;4984730;28;66585;-38
2023/12/13 03:32:09;;;;;;;16.45;14.95;;;;;;;31.63;58.67;101102.06;4970939;28;70405;-38
2023/12/13 03:34:39;;;;;;;16.65;15.02;;;;;;;31.66;58.21;101100.81;4984808;28;66398;-39
2023/12/13 03:37:09;;;;;;;16.73;15.10;;;;;;;31.69;58.54;101100.34;4982014;28;69601;-38
2023/12/13 03:39:40;;;;;;;16.83;15.43;;;;;;;31.70;58.46;101102.00;4985485;28;66644;-39
2023/12/13 03:42:10;;;;;;;15.73;14.43;;;;;;;31.74;58.45;101098.63;4985771;28;70453;-38
2023/12/13 03:44:40;;;;;;;17.48;15.57;;;;;;;31.75;58.61;101094.03;4966250;28;65918;-38
2023/12/13 03:47:10;;;;;;;16.33;14.77;;;;;;;31.78;58.50;101099.03;4984156;28;69156;-38
2023/12/13 03:49:41;;;;;;;16.70;15.13;;;;;;;31.79;58.28;101092.56;4989984;28;65361;-41
2023/12/13 03:52:11;;;;;;;18.08;16.27;;;;;;;31.80;58.78;101086.06;4983231;28;70393;-38
2023/12/13 03:54:41;;;;;;;16.63;15.07;;;;;;;31.81;58.27;101083.13;4988321;28;66028;-38
2023/12/13 03:57:11;;;;;;;18.10;16.48;;;;;;;31.84;58.01;101084.56;4989434;28;70813;-38
2023/12/13 03:59:41;;;;;;;16.80;15.40;;;;;;;31.85;58.00;101069.97;4967488;28;66234;-37
2023/12/13 04:02:11;;;;;;;16.30;14.35;;;;;;;31.90;57.98;101078.28;4986851;28;69708;-38
2023/12/13 04:04:41;;;;;;;16.67;14.93;;;;;;;31.79;57.98;101049.16;4984363;28;65847;-38
2023/12/13 04:07:11;;;;;;;16.33;14.80;;;;;;;31.92;57.79;101072.63;4983944;28;70197;-38
2023/12/13 04:09:41;;;;;;;15.50;13.98;;;;;;;31.95;57.89;101067.59;4986855;28;65511;-37
2023/12/13 04:12:11;;;;;;;15.38;13.85;;;;;;;31.98;57.77;101067.16;4970379;28;70137;-38
2023/12/13 04:14:41;;;;;;;17.50;15.93;;;;;;;32.00;58.03;101064.22;4967607;28;65372;-37
2023/12/13 04:17:11;;;;;;;18.45;16.88;;;;;;;32.02;58.04;101064.84;4968441;28;70356;-37
2023/12/13 04:19:41;;;;;;;19.27;17.60;;;;;;;31.92;57.79;101029.22;4968255;28;66928;-38
2023/12/13 04:22:11;;;;;;;18.17;16.50;;;;;;;32.01;57.96;101042.31;4967309;28;70153;-37
2023/12/13 04:24:41;;;;;;;18.52;16.75;;;;;;;32.09;57.93;101056.63;4975361;28;66653;-37
2023/12/13 04:27:11;;;;;;;17.25;15.75;;;;;;;31.98;57.77;101028.34;4949643;28;70644;-37
2023/12/13 04:29:41;;;;;;;24.50;22.17;;;;;;;32.10;57.87;101056.41;4974737;28;65791;-38
2023/12/13 04:32:12;;;;;;;21.38;19.33;;;;;;;32.13;57.67;101044.28;4953779;28;70403;-38
2023/12/13 04:34:42;;;;;;;23.85;21.58;;;;;;;32.16;57.57;101046.53;4983985;28;66596;-38
2023/12/13 04:37:12;;;;;;;27.65;25.05;;;;;;;31.93;57.68;100993.75;4945982;28;70312;-38
2023/12/13 04:39:43;;;;;;;25.02;22.80;;;;;;;32.19;57.76;101035.22;4969453;28;65477;-38
2023/12/13 04:42:13;;;;;;;24.92;22.48;;;;;;;32.15;57.97;101029.44;4976260;28;69592;-37
2023/12/13 04:44:43;;;;;;;22.65;20.65;;;;;;;32.23;57.91;101030.97;4967662;28;66656;-37
2023/12/13 04:47:13;;;;;;;24.02;21.83;;;;;;;32.25;57.66;101023.44;4947584;28;69413;-37
2023/12/13 04:49:44;;;;;;;26.75;24.27;;;;;;;32.25;57.40;101034.31;4957627;28;65457;-37
2023/12/13 04:52:15;;;;;;;27.23;24.48;;;;;;;32.26;57.69;101015.09;4948202;28;69730;-38
2023/12/13 04:54:45;;;;;;;25.80;23.30;;;;;;;32.30;57.75;101023.59;4963490;28;65968;-38
2023/12/13 04:57:15;;;;;;;29.48;26.52;;;;;;;32.31;57.55;101021.72;4958215;28;70545;-37
2023/12/13 04:59:45;;;;;;;29.77;27.00;;;;;;;32.32;57.56;101002.50;4973431;28;66586;-37
2023/12/13 05:02:15;;;;;;;35.13;31.73;;;;;;;32.31;57.63;100986.44;4967762;28;69824;-38
2023/12/13 05:04:47;;;;;;;35.80;32.42;;;;;;;32.31;57.24;100981.81;4978221;28;65878;-38
2023/12/13 05:07:18;;;;;;;29.38;26.60;;;;;;;32.19;57.85;100965.47;4966794;28;69795;-38
2023/12/13 05:09:48;;;;;;;31.20;27.80;;;;;;;32.35;57.58;100985.75;4975288;28;65724;-38
2023/12/13 05:12:18;;;;;;;32.75;29.65;;;;;;;32.41;57.24;100982.13;4973489;28;70076;-38
2023/12/13 05:14:48;;;;;;;33.33;29.92;;;;;;;32.39;57.46;100965.22;4967908;28;66080;-39
2023/12/13 05:17:18;;;;;;;31.25;28.15;;;;;;;32.36;57.52;100960.25;4975416;28;69578;-38
2023/12/13 05:19:48;;;;;;;32.03;29.05;;;;;;;32.44;57.33;100967.25;4967451;28;66123;-38
2023/12/13 05:22:21;;;;;;;31.38;28.60;;;;;;;32.44;57.36;100967.25;4974537;28;70657;-39
2023/12/13 05:24:51;;;;;;;36.55;33.08;;;;;;;32.46;57.23;100960.59;4965773;28;66205;-38
2023/12/13 05:27:21;;;;;;;38.33;34.53;;;;;;;32.43;57.40;100957.44;4965901;28;70379;-38
2023/12/13 05:29:51;;;;;;;35.75;31.98;;;;;;;32.49;57.18;100964.72;4964429;28;66784;-38
2023/12/13 05:32:21;;;;;;;36.78;33.20;;;;;;;32.51;57.15;100953.63;4973785;28;69916;-38
2023/12/13 05:34:51;;;;;;;40.33;36.03;;;;;;;32.38;57.21;100920.13;4961302;28;65442;-38
2023/12/13 05:37:21;;;;;;;42.40;38.28;;;;;;;32.55;57.06;100946.69;4944450;28;69463;-38
2023/12/13 05:39:51;;;;;;;42.72;38.30;;;;;;;32.44;56.93;100913.78;4969497;28;66679;-38
2023/12/13 05:42:21;;;;;;;39.10;35.10;;;;;;;32.59;56.98;100928.84;4976437;28;70006;-38
2023/12/13 05:44:51;;;;;;;38.17;34.40;;;;;;;32.60;56.82;100922.38;4980123;28;66854;-38
2023/12/13 05:47:21;;;;;;;37.17;33.35;;;;;;;32.60;56.54;100925.94;4948684;28;69727;-38
2023/12/13 05:49:51;;;;;;;36.50;32.92;;;;;;;32.64;56.83;100923.56;4960725;28;66794;-38
2023/12/13 05:52:22;;;;;;;35.03;31.90;;;;;;;32.69;56.46;100929.13;4972317;28;70112;-38
2023/12/13 05:54:52;;;;;;;34.72;31.50;;;;;;;32.61;56.69;100910.44;4977292;28;66748;-38
2023/12/13 05:57:22;;;;;;;34.45;30.80;;;;;;;32.74;56.59;100912.16;4970703;28;69822;-38
2023/12/13 05:59:52;;;;;;;34.25;30.85;;;;;;;32.78;56.42;100903.28;4964677;28;66642;-39
2023/12/13 06:02:22;;;;;;;34.08;30.88;;;;;;;32.81;56.41;100897.38;4976294;28;69481;-39
2023/12/13 06:04:53;;;;;;;32.25;29.15;;;;;;;32.83;56.69;100895.28;4965912;28;66810;-39
2023/12/13 06:07:26;;;;;;;32.08;28.85;;;;;;;32.86;56.20;100893.97;4961072;28;70000;-38
2023/12/13 06:09:56;;;;;;;41.35;37.35;;;;;;;32.53;55.99;100834.75;4966017;28;66344;-40
2023/12/13 06:12:26;;;;;;;41.72;37.50;;;;;;;32.87;56.25;100884.75;4968862;28;70443;-39
2023/12/13 06:14:58;;;;;;;42.40;38.38;;;;;;;32.93;56.19;100879.22;4968535;28;65807;-39
2023/12/13 06:17:28;;;;;;;40.90;36.80;;;;;;;32.94;56.19;100886.31;4964510;28;70117;-39
2023/12/13 06:19:58;;;;;;;35.58;32.13;;;;;;;32.96;55.92;100877.94;4969233;28;66349;-39
2023/12/13 06:22:28;;;;;;;35.78;32.08;;;;;;;32.89;56.29;100869.06;4953162;28;70415;-39
2023/12/13 06:24:58;;;;;;;36.97;33.10;;;;;;;33.00;56.04;100873.72;4964774;28;66761;-38
2023/12/13 06:27:28;;;;;;;36.40;32.67;;;;;;;33.01;56.05;100869.09;4940877;28;69072;-39
2023/12/13 06:29:59;;;;;;;35.22;32.15;;;;;;;33.01;55.99;100874.53;4968747;28;66580;-39
2023/12/13 06:32:30;;;;;;;;;;;;;;;32.76;56.46;100867.38;4967707;28;69837;-39
2023/12/13 06:35:00;;;;;;;34.92;31.67;;;;;;;33.02;55.68;100859.91;4941717;28;67275;-39
2023/12/13 06:37:30;;;;;;;34.17;30.90;;;;;;;33.07;55.94;100862.72;4966771;28;70652;-39
2023/12/13 06:40:01;;;;;;;34.33;31.05;;;;;;;33.11;55.64;100862.00;4969302;28;66646;-38
2023/12/13 06:42:31;;;;;;;33.40;30.23;;;;;;;33.15;55.80;100856.91;4958983;28;70900;-37
2023/12/13 06:45:02;;;;;;;34.33;31.23;;;;;;;33.16;55.77;100855.88;4963640;28;66225;-38
2023/12/13 06:47:33;;;;;;;34.83;31.13;;;;;;;33.17;55.83;100857.53;4962408;28;70243;-38
2023/12/13 06:50:05;;;;;;;32.20;29.30;;;;;;;33.12;55.60;100832.94;4965516;28;67010;-39
2023/12/13 06:52:35;;;;;;;31.10;28.38;;;;;;;33.20;55.58;100846.16;4961259;28;70236;-39
2023/12/13 06:55:05;;;;;;;32.10;28.77;;;;;;;33.24;55.50;100839.22;4937913;28;65790;-39
2023/12/13 06:57:36;;;;;;;30.95;28.15;;;;;;;33.25;55.81;100829.16;4944976;28;70322;-38
2023/12/13 07:00:08;;;;;;;30.60;27.70;;;;;;;33.29;55.35;100833.03;4960154;28;66181;-38
2023/12/13 07:02:39;;;;;;;30.45;27.63;;;;;;;33.30;55.53;100818.41;4969189;28;70118;-38
2023/12/13 07:05:10;;;;;;;29.15;26.75;;;;;;;32.96;55.55;100765.69;4945195;28;67733;-39
2023/12/13 07:07:40;;;;;;;29.20;26.70;;;;;;;33.33;55.14;100818.75;4929499;28;68787;-39
2023/12/13 07:10:10;;;;;;;27.88;25.67;;;;;;;33.36;55.38;100823.69;4969647;28;65536;-39
2023/12/13 07:12:41;;;;;;;27.75;25.55;;;;;;;33.37;55.26;100825.34;4962784;28;70632;-39
2023/12/13 07:15:11;;;;;;;27.48;25.02;;;;;;;33.40;55.11;100818.59;4961426;28;65399;-39
2023/12/13 07:17:42;;;;;;;26.50;24.30;;;;;;;33.43;55.26;100818.13;4917767;28;70219;-39
2023/12/13 07:20:12;;;;;;;26.95;24.75;;;;;;;33.40;55.18;100809.63;4956853;28;65547;-38
2023/12/13 07:22:43;;;;;;;26.35;24.20;;;;;;;33.45;55.09;100810.56;4962437;28;69338;-38
2023/12/13 07:25:13;;;;;;;25.17;23.13;;;;;;;33.47;54.83;100810.34;4978684;28;65638;-38
2023/12/13 07:27:43;;;;;;;26.25;23.67;;;;;;;33.51;54.78;100806.06;4960769;28;70036;-38
2023/12/13 07:30:14;;;;;;;25.90;23.35;;;;;;;33.52;54.71;100810.44;4953533;28;66161;-38
2023/12/13 07:32:44;;;;;;;25.10;22.92;;;;;;;33.32;54.89;100770.88;4964627;28;70605;-39
2023/12/13 07:35:15;;;;;;;24.35;22.38;;;;;;;33.55;54.64;100793.69;4951808;28;65720;-38
2023/12/13 07:37:48;;;;;;;22.93;21.30;;;;;;;33.54;55.03;100797.44;4945427;28;68662;-38
2023/12/13 07:40:19;;;;;;;23.60;21.27;;;;;;;33.55;54.56;100789.06;4941873;28;65964;-37
2023/12/13 07:42:49;;;;;;;23.30;21.27;;;;;;;33.58;54.66;100794.00;4968089;28;70813;-38
2023/12/13 07:45:20;;;;;;;22.35;20.65;;;;;;;33.57;54.72;100786.09;4955210;28;66286;-39
2023/12/13 07:47:51;;;;;;;22.40;20.60;;;;;;;33.58;54.55;100782.31;4951740;28;70221;-39
2023/12/13 07:50:42;;;;;;;23.30;21.20;;;;;;;33.62;54.47;100791.63;4964552;28;66737;-38
2023/12/13 07:53:13;;;;;;;22.65;20.67;;;;;;;33.64;54.93;100785.97;4968868;28;70431;-38
2023/12/13 07:55:44;;;;;;;22.25;20.15;;;;;;;33.63;54.70;100784.28;4948124;28;66336;-39
2023/12/13 07:58:15;;;;;;;22.42;20.80;;;;;;;33.66;54.39;100792.81;4973426;28;69923;-39
2023/12/13 08:00:45;;;;;;;22.50;20.65;;;;;;;33.58;54.65;100774.16;4957623;28;64945;-38
2023/12/13 08:03:15;;;;;;;23.52;19.70;;;;;;;33.65;54.16;100784.88;4939715;28;69988;-38
2023/12/13 08:05:45;;;;;;;21.25;19.10;;;;;;;33.61;54.80;100778.28;4946779;28;66534;-38
2023/12/13 08:08:16;;;;;;;19.88;18.38;;;;;;;33.73;54.68;100793.47;4963900;28;69868;-39
2023/12/13 08:10:46;;;;;;;19.50;17.83;;;;;;;33.74;54.73;100792.44;4968014;28;66315;-38
2023/12/13 08:13:16;;;;;;;18.55;17.15;;;;;;;33.64;54.41;100762.31;4951351;28;69885;-39
2023/12/13 08:15:48;;;;;;;19.25;17.45;;;;;;;33.74;54.61;100776.13;4942240;28;65996;-39
2023/12/13 08:18:18;;;;;;;18.30;16.80;;;;;;;33.71;54.50;100770.31;4964485;28;69514;-41
2023/12/13 08:20:48;;;;;;;19.42;17.65;;;;;;;33.76;54.54;100778.56;4947526;28;66284;-38
2023/12/13 08:23:19;;;;;;;17.35;16.05;;;;;;;33.74;54.37;100776.13;4965066;28;70460;-38
2023/12/13 08:25:49;;;;;;;16.92;15.82;;;;;;;33.79;54.18;100778.94;4960692;28;66557;-39
2023/12/13 08:28:20;;;;;;;17.27;15.47;;;;;;;33.78;54.44;100777.25;4971887;28;71771;-39
2023/12/13 08:30:50;;;;;;;16.20;14.77;;;;;;;33.80;53.79;100775.13;4971844;28;67753;-38
2023/12/13 08:33:20;;;;;;;17.27;15.48;;;;;;;33.80;54.37;100775.13;4971704;28;69988;-40
2023/12/13 08:35:51;;;;;;;15.57;14.48;;;;;;;33.60;54.25;100742.09;4960493;28;65159;-39
2023/12/13 08:38:23;;;;;;;16.25;14.65;;;;;;;33.81;54.31;100770.50;4946073;28;70710;-40
2023/12/13 08:40:52;;;;;;;15.52;14.00;;;;;;;33.81;54.40;100771.34;4945847;28;66375;-38
2023/12/13 08:43:22;;;;;;;15.75;14.65;;;;;;;33.83;54.61;100773.00;4963340;28;70808;-39
2023/12/13 08:45:53;;;;;;;16.45;15.15;;;;;;;33.81;54.56;100776.78;4963267;28;66844;-38
2023/12/13 08:48:23;;;;;;;15.50;14.00;;;;;;;33.84;54.64;100782.81;4961782;28;69594;-38
2023/12/13 08:50:54;;;;;;;15.60;14.38;;;;;;;33.75;54.42;100766.88;4961577;28;66551;-39
2023/12/13 08:53:24;;;;;;;15.02;13.70;;;;;;;33.75;54.61;100771.50;4962825;28;70981;-38
2023/12/13 08:55:54;;;;;;;15.02;13.77;;;;;;;33.84;54.49;100785.53;4960233;28;66354;-38
2023/12/13 08:58:24;;;;;;;14.57;13.48;;;;;;;33.85;54.64;100787.16;4959755;28;69757;-38
2023/12/13 09:00:54;;;;;;;15.23;14.13;;;;;;;33.80;54.55;100780.56;4964199;28;66889;-38
2023/12/13 09:03:27;;;;;;;13.80;12.80;;;;;;;33.51;54.13;100738.06;4967361;28;70142;-39
2023/12/13 09:05:58;;;;;;;13.93;12.90;;;;;;;33.81;54.38;100793.09;4947274;28;66073;-38
2023/12/13 09:08:28;;;;;;;14.18;12.82;;;;;;;33.76;54.45;100789.47;4962483;28;72023;-39
2023/12/13 09:10:58;;;;;;;14.65;12.82;;;;;;;33.84;54.47;100802.69;4968208;28;65959;-38
2023/12/13 09:13:28;;;;;;;13.88;12.75;;;;;;;33.83;54.92;100801.03;4968424;28;70556;-38
2023/12/13 09:15:59;;;;;;;13.45;12.43;;;;;;;33.83;54.42;100800.22;4968688;28;67085;-38
2023/12/13 09:18:29;;;;;;;14.20;12.88;;;;;;;33.48;56.08;100809.25;4970793;28;69875;-37
2023/12/13 09:20:59;;;;;;;15.55;13.85;;;;;;;33.28;56.91;100813.19;4964072;28;65901;-38
2023/12/13 09:23:29;;;;;;;13.38;12.50;;;;;;;33.12;57.93;100822.06;4972742;28;70399;-38
2023/12/13 09:26:00;;;;;;;14.82;13.27;;;;;;;33.09;57.88;100823.38;4956772;28;66450;-39
2023/12/13 09:28:29;;;;;;;16.45;12.85;;;;;;;33.01;58.48;100820.19;4968971;28;70583;-38
2023/12/13 09:31:00;;;;;;;24.05;13.63;;;;;;;33.03;58.24;100826.22;4973091;28;65543;-38
2023/12/13 09:33:30;;;;;;;13.43;12.07;;;;;;;32.47;59.76;100760.47;4968920;28;70673;-39
2023/12/13 09:36:01;;;;;;;13.98;12.60;;;;;;;32.58;59.43;100777.84;4965855;28;66049;-39
2023/12/13 09:38:31;;;;;;;14.07;12.77;;;;;;;33.19;57.70;100841.81;4963976;28;70756;-38
2023/12/13 09:41:02;;;;;;;13.45;12.23;;;;;;;33.35;57.21;100853.88;4973446;28;66116;-38
2023/12/13 09:43:34;;;;;;;16.20;12.50;;;;;;;33.31;57.29;100842.63;4947340;28;70219;-38
2023/12/13 09:46:07;;;;;;;13.15;11.88;;;;;;;33.48;56.89;100859.03;4965728;28;66923;-38
2023/12/13 09:48:39;;;;;;;15.63;12.20;;;;;;;33.52;57.15;100856.69;4972170;28;70278;-38
2023/12/13 09:51:11;;;;;;;13.52;11.68;;;;;;;33.48;56.78;100841.88;4965603;28;66669;-38
2023/12/13 09:53:44;;;;;;;15.00;12.00;;;;;;;33.54;56.91;100871.72;4955081;28;70254;-38
2023/12/13 09:56:15;;;;;;;16.45;12.65;;;;;;;33.33;57.06;100835.06;4943992;28;65711;-38
2023/12/13 09:58:46;;;;;;;13.32;11.43;;;;;;;33.57;56.92;100867.69;4950230;28;69961;-38
2023/12/13 10:01:17;;;;;;;13.07;11.15;;;;;;;33.62;57.28;100866.97;4979534;28;66452;-40
2023/12/13 10:03:48;;;;;;;14.63;11.85;;;;;;;33.61;57.23;100865.31;4943129;28;70240;-37
2023/12/13 10:06:19;;;;;;;12.93;10.90;;;;;;;33.61;57.54;100874.31;4937525;28;65395;-38
2023/12/13 10:08:57;;;;;;;12.30;11.18;;;;;;;33.55;57.58;100872.56;4961994;28;69868;-37
2023/12/13 10:11:28;;;;;;;11.75;10.50;;;;;;;33.61;57.48;100878.91;4960181;28;66692;-38
2023/12/13 10:13:58;;;;;;;12.20;9.90;;;;;;;33.56;58.00;100874.19;4944900;28;69184;-38
2023/12/13 10:16:28;;;;;;;10.43;9.48;;;;;;;33.57;57.38;100884.00;4965430;28;66650;-38
2023/12/13 10:18:59;;;;;;;10.25;8.93;;;;;;;33.59;57.97;100887.31;4968258;28;70469;-38
2023/12/13 10:21:32;;;;;;;16.27;8.98;;;;;;;33.61;57.80;100890.63;4944865;28;65479;-38
2023/12/13 10:24:06;;;;;;;9.93;9.02;;;;;;;33.59;58.42;100882.69;4964353;28;69922;-37
2023/12/13 10:26:36;;;;;;;14.30;9.13;;;;;;;33.51;58.19;100874.88;4971257;28;65343;-38
2023/12/13 10:29:07;;;;;;;10.13;9.13;;;;;;;33.55;58.27;100880.72;4956771;28;70121;-38
2023/12/13 10:31:37;;;;;;;14.40;8.40;;;;;;;33.57;58.48;100886.72;4966517;28;67562;-39
2023/12/13 10:34:07;;;;;;;11.75;8.40;;;;;;;33.59;58.23;100892.75;4947101;28;70339;-38
2023/12/13 10:36:38;;;;;;;9.15;8.38;;;;;;;33.15;58.11;100821.59;4970545;28;66758;-38
2023/12/13 10:39:15;;;;;;;13.98;8.07;;;;;;;33.51;58.58;100890.34;4966346;28;70222;-39
2023/12/13 10:41:50;;;;;;;13.65;7.50;;;;;;;33.09;58.73;100814.38;4965438;28;66088;-37
2023/12/13 10:44:22;;;;;;;11.02;7.82;;;;;;;33.55;58.96;100888.88;4968811;28;70407;-38
2023/12/13 10:46:56;;;;;;;8.68;7.32;;;;;;;33.54;58.81;100884.47;4957057;28;65884;-38
2023/12/13 10:49:29;;;;;;;10.05;6.97;;;;;;;33.49;59.00;100884.31;4942234;28;69746;-38
2023/12/13 10:52:01;;;;;;;8.45;7.63;;;;;;;33.53;58.96;100886.38;4965025;28;65743;-38
2023/12/13 10:54:32;;;;;;;14.20;8.82;;;;;;;33.47;60.03;100889.19;4973603;28;69939;-38
2023/12/13 10:57:02;;;;;;;30.47;14.43;;;;;;;33.08;61.74;100894.28;4950966;28;65110;-38
2023/12/13 10:59:34;;;;;;;29.13;18.17;;;;;;;32.87;63.69;100888.28;4964663;28;70363;-39
2023/12/13 11:02:06;;;;;;;31.75;21.17;;;;;;;32.87;62.80;100890.19;4962924;28;65928;-39
2023/12/13 11:04:38;;;;;;;43.67;26.10;;;;;;;32.36;64.96;100824.53;4977819;28;70209;-38
2023/12/13 11:07:08;;;;;;;;;;;;;;;32.53;66.82;100899.91;4981281;28;67326;-38
2023/12/13 11:09:54;;;;;;;;;;;;;;;32.49;66.84;100900.38;4979990;28;70438;-39
2023/12/13 11:12:24;;;;;;;38.65;25.83;;;;;;;32.63;66.67;100895.59;4962001;28;66585;-39
2023/12/13 11:14:54;;;;;;;46.15;26.73;;;;;;;32.69;65.05;100901.97;4970022;28;69214;-38
2023/12/13 11:17:25;;;;;;;53.38;24.75;;;;;;;32.63;66.99;100900.19;4932661;28;65365;-39
2023/12/13 11:20:05;;;;;;;35.58;22.50;;;;;;;32.61;67.15;100910.44;4952008;28;43256;-38
2023/12/13 11:22:36;;;;;;;36.13;21.83;;;;;;;32.57;67.32;100901.09;4965086;28;65436;-38
2023/12/13 11:25:06;;;;;;;34.40;19.92;;;;;;;32.55;64.64;100897.81;4972516;28;69806;-38
2023/12/13 11:27:37;;;;;;;26.67;18.40;;;;;;;32.57;67.35;100918.25;4964528;28;66478;-38